Marcel — ONDP — position and weather

sailwx.info

Track history (hours):
 
Tides and Currents Weather Stations Pressure Air Temp Water Temp Dewpoint Dewpoint Depression Visibility Wind Speed Wind Dir Waves Ship Positions

Marcel

Last reported at 2015-May-24 06:33 UTC. Time now 2015-May-25 09:36 UTC.
Position N 50°29' E 000°03'.

Length 88 m; draft 5.3 m.

Type: Cargo ship. MMSI: 205439000.

Date/timePositionNaut miles runAvg speedWind from/ knotsBaromVisibWave heightAir tempDewpointWater temp
2015-May-24 06:33N 50°29' E 000°03'1010.1
2015-May-24 05:33N 50°22' E 000°15'14 9.9
2015-May-24 04:09N 50°13' E 000°31'8 9.6
2015-May-24 03:20N 50°08' E 000°41'19 8.5
2015-May-24 01:05N 49°57' E 001°05'42 1.1
2015-May-22 11:32N 50°37' E 000°45'8 8.4
2015-May-22 10:33N 50°43' E 000°54'1310.1
2015-May-22 09:17N 50°53' E 001°08'7 9.7
2015-May-22 08:33N 50°58' E 001°15'1111.1
2015-May-22 07:34N 51°05' E 001°28'9 9.4
2015-May-22 06:33N 51°11' E 001°40'8 8.3
2015-May-22 05:32N 51°17' E 001°49'7 7.5
2015-May-22 04:33N 51°23' E 001°57'5 5.3
2015-May-22 03:33N 51°23' E 002°05'7 7.4
2015-May-22 02:33N 51°21' E 002°17'7 6.9
2015-May-22 01:33N 51°23' E 002°27'8 7.9
2015-May-22 00:34N 51°23' E 002°40'9 8.7
2015-May-21 23:33N 51°23' E 002°54'11 9.9
2015-May-21 22:25N 51°24' E 003°12'910.2
2015-May-21 21:33N 51°25' E 003°26'10 9.9
2015-May-21 20:33N 51°26' E 003°42'9 9.4
2015-May-21 19:33N 51°23' E 003°56'7 7.0
2015-May-21 18:33N 51°22' E 004°08'7 6.9
2015-May-21 17:33N 51°18' E 004°17'3 2.7
2015-May-21 16:33N 51°17' E 004°20'1 1.1
2015-May-21 15:33N 51°16' E 004°21'2 1.4
2015-May-21 14:27N 51°15' E 004°23'0 0.0
2015-May-21 13:29N 51°15' E 004°23'0 0.0
2015-May-21 12:32N 51°15' E 004°23'0 0.0
2015-May-21 11:32N 51°15' E 004°23'0 0.0
2015-May-21 10:33N 51°15' E 004°23'0 0.0
2015-May-21 09:32N 51°15' E 004°23'0 0.0
2015-May-21 08:31N 51°15' E 004°23'0 0.0
2015-May-21 07:31N 51°15' E 004°23'0 0.0
2015-May-21 06:30N 51°15' E 004°23'0 0.0
2015-May-21 05:33N 51°15' E 004°23'0 0.0
2015-May-21 04:29N 51°15' E 004°23'0 0.0
2015-May-21 03:26N 51°15' E 004°23'0 0.0
2015-May-21 02:31N 51°15' E 004°23'0 0.0
2015-May-21 01:27N 51°15' E 004°23'0 0.3
2015-May-21 00:34N 51°15' E 004°22'2 2.4
2015-May-20 23:33N 51°17' E 004°20'7 7.2
2015-May-20 22:33N 51°22' E 004°13'7 6.6
2015-May-20 21:34N 51°23' E 004°02'3 3.5
2015-May-20 20:34N 51°23' E 003°57'6 5.8
2015-May-20 19:33N 51°20' E 003°49'2 1.7
2015-May-20 18:33N 51°18' E 003°50'0 0.2
2015-May-20 17:27N 51°18' E 003°50'0 0.0
2015-May-20 16:31N 51°18' E 003°50'0 0.0
2015-May-20 15:23N 51°18' E 003°50'0 0.0
2015-May-20 14:30N 51°18' E 003°50'0 0.0
2015-May-20 13:21N 51°18' E 003°50'0 0.0
2015-May-20 12:26N 51°18' E 003°50'0 0.0
2015-May-20 10:13N 51°18' E 003°50'0 0.0
2015-May-20 09:23N 51°18' E 003°50'0 0.0
2015-May-20 08:33N 51°18' E 003°50'0 0.0
2015-May-20 07:33N 51°18' E 003°50'0 0.0
2015-May-20 05:31N 51°18' E 003°50'0 0.0
2015-May-20 04:24N 51°18' E 003°50'0 0.3
2015-May-20 03:33N 51°18' E 003°50'2 1.6
2015-May-20 02:34N 51°20' E 003°49'0 0.1
2015-May-20 01:33N 51°20' E 003°49'6 6.3
2015-May-20 00:33N 51°24' E 003°42'8 8.2
2015-May-19 23:33N 51°25' E 003°28'10 9.7
2015-May-19 22:33N 51°24' E 003°13'8 8.2
2015-May-19 21:33N 51°23' E 002°60'7 7.4
2015-May-19 20:34N 51°21' E 002°49'7 6.5
2015-May-19 19:33N 51°22' E 002°38'7 6.4
2015-May-19 18:30N 51°21' E 002°27'6 6.5
2015-May-19 17:33N 51°19' E 002°18'3 3.1
2015-May-19 16:33N 51°20' E 002°13'5 4.8
2015-May-19 15:33N 51°21' E 002°21'4 3.9
2015-May-19 14:33N 51°22' E 002°27'3 3.3
2015-May-19 13:33N 51°23' E 002°32'3 2.8
2015-May-19 12:30N 51°20' E 002°32'0 0.2
2015-May-19 11:31N 51°20' E 002°32'0 0.2
2015-May-19 10:28N 51°20' E 002°32'0 0.0
2015-May-19 09:14N 51°20' E 002°32'0 0.0
2015-May-19 08:19N 51°20' E 002°32'0 0.1
2015-May-19 07:31N 51°20' E 002°32'0 0.2
2015-May-19 06:32N 51°20' E 002°32'0 0.0
2015-May-19 05:32N 51°20' E 002°32'0 0.3
2015-May-19 04:30N 51°20' E 002°32'3 3.6
2015-May-19 03:33N 51°21' E 002°26'10 9.8
2015-May-19 02:33N 51°16' E 002°13'1010.5
2015-May-19 01:34N 51°10' E 001°59'1111.1
2015-May-19 00:32N 51°04' E 001°44'1411.5
2015-May-18 23:21N 50°54' E 001°30'325 8.2
2015-May-17 07:33N 48°21' W 005°53'  
Track history (hours):
 
Tides and Currents Weather Stations Pressure Air Temp Water Temp Dewpoint Dewpoint Depression Visibility Wind Speed Wind Dir Waves Ship Positions

Marcel

Last reported at 2015-May-24 06:33 UTC. Time now 2015-May-25 09:36 UTC.
Position N 50°29' E 000°03'.

Length 88 m; draft 5.3 m.

Type: Cargo ship. MMSI: 205439000.

Date/timePositionNaut miles runAvg speedWind from/ knotsBaromVisibWave heightAir tempDewpointWater temp
2015-May-24 06:33N 50°29' E 000°03'1010.1
2015-May-24 05:33N 50°22' E 000°15'14 9.9
2015-May-24 04:09N 50°13' E 000°31'8 9.6
2015-May-24 03:20N 50°08' E 000°41'19 8.5
2015-May-24 01:05N 49°57' E 001°05'42 1.1
2015-May-22 11:32N 50°37' E 000°45'8 8.4
2015-May-22 10:33N 50°43' E 000°54'1310.1
2015-May-22 09:17N 50°53' E 001°08'7 9.7
2015-May-22 08:33N 50°58' E 001°15'1111.1
2015-May-22 07:34N 51°05' E 001°28'9 9.4
2015-May-22 06:33N 51°11' E 001°40'8 8.3
2015-May-22 05:32N 51°17' E 001°49'7 7.5
2015-May-22 04:33N 51°23' E 001°57'5 5.3
2015-May-22 03:33N 51°23' E 002°05'7 7.4
2015-May-22 02:33N 51°21' E 002°17'7 6.9
2015-May-22 01:33N 51°23' E 002°27'8 7.9
2015-May-22 00:34N 51°23' E 002°40'9 8.7
2015-May-21 23:33N 51°23' E 002°54'11 9.9
2015-May-21 22:25N 51°24' E 003°12'910.2
2015-May-21 21:33N 51°25' E 003°26'10 9.9
2015-May-21 20:33N 51°26' E 003°42'9 9.4
2015-May-21 19:33N 51°23' E 003°56'7 7.0
2015-May-21 18:33N 51°22' E 004°08'7 6.9
2015-May-21 17:33N 51°18' E 004°17'3 2.7
2015-May-21 16:33N 51°17' E 004°20'1 1.1
2015-May-21 15:33N 51°16' E 004°21'2 1.4
2015-May-21 14:27N 51°15' E 004°23'0 0.0
2015-May-21 13:29N 51°15' E 004°23'0 0.0
2015-May-21 12:32N 51°15' E 004°23'0 0.0
2015-May-21 11:32N 51°15' E 004°23'0 0.0
2015-May-21 10:33N 51°15' E 004°23'0 0.0
2015-May-21 09:32N 51°15' E 004°23'0 0.0
2015-May-21 08:31N 51°15' E 004°23'0 0.0
2015-May-21 07:31N 51°15' E 004°23'0 0.0
2015-May-21 06:30N 51°15' E 004°23'0 0.0
2015-May-21 05:33N 51°15' E 004°23'0 0.0
2015-May-21 04:29N 51°15' E 004°23'0 0.0
2015-May-21 03:26N 51°15' E 004°23'0 0.0
2015-May-21 02:31N 51°15' E 004°23'0 0.0
2015-May-21 01:27N 51°15' E 004°23'0 0.3
2015-May-21 00:34N 51°15' E 004°22'2 2.4
2015-May-20 23:33N 51°17' E 004°20'7 7.2
2015-May-20 22:33N 51°22' E 004°13'7 6.6
2015-May-20 21:34N 51°23' E 004°02'3 3.5
2015-May-20 20:34N 51°23' E 003°57'6 5.8
2015-May-20 19:33N 51°20' E 003°49'2 1.7
2015-May-20 18:33N 51°18' E 003°50'0 0.2
2015-May-20 17:27N 51°18' E 003°50'0 0.0
2015-May-20 16:31N 51°18' E 003°50'0 0.0
2015-May-20 15:23N 51°18' E 003°50'0 0.0
2015-May-20 14:30N 51°18' E 003°50'0 0.0
2015-May-20 13:21N 51°18' E 003°50'0 0.0
2015-May-20 12:26N 51°18' E 003°50'0 0.0
2015-May-20 10:13N 51°18' E 003°50'0 0.0
2015-May-20 09:23N 51°18' E 003°50'0 0.0
2015-May-20 08:33N 51°18' E 003°50'0 0.0
2015-May-20 07:33N 51°18' E 003°50'0 0.0
2015-May-20 05:31N 51°18' E 003°50'0 0.0
2015-May-20 04:24N 51°18' E 003°50'0 0.3
2015-May-20 03:33N 51°18' E 003°50'2 1.6
2015-May-20 02:34N 51°20' E 003°49'0 0.1
2015-May-20 01:33N 51°20' E 003°49'6 6.3
2015-May-20 00:33N 51°24' E 003°42'8 8.2
2015-May-19 23:33N 51°25' E 003°28'10 9.7
2015-May-19 22:33N 51°24' E 003°13'8 8.2
2015-May-19 21:33N 51°23' E 002°60'7 7.4
2015-May-19 20:34N 51°21' E 002°49'7 6.5
2015-May-19 19:33N 51°22' E 002°38'7 6.4
2015-May-19 18:30N 51°21' E 002°27'6 6.5
2015-May-19 17:33N 51°19' E 002°18'3 3.1
2015-May-19 16:33N 51°20' E 002°13'5 4.8
2015-May-19 15:33N 51°21' E 002°21'4 3.9
2015-May-19 14:33N 51°22' E 002°27'3 3.3
2015-May-19 13:33N 51°23' E 002°32'3 2.8
2015-May-19 12:30N 51°20' E 002°32'0 0.2
2015-May-19 11:31N 51°20' E 002°32'0 0.2
2015-May-19 10:28N 51°20' E 002°32'0 0.0
2015-May-19 09:14N 51°20' E 002°32'0 0.0
2015-May-19 08:19N 51°20' E 002°32'0 0.1
2015-May-19 07:31N 51°20' E 002°32'0 0.2
2015-May-19 06:32N 51°20' E 002°32'0 0.0
2015-May-19 05:32N 51°20' E 002°32'0 0.3
2015-May-19 04:30N 51°20' E 002°32'3 3.6
2015-May-19 03:33N 51°21' E 002°26'10 9.8
2015-May-19 02:33N 51°16' E 002°13'1010.5
2015-May-19 01:34N 51°10' E 001°59'1111.1
2015-May-19 00:32N 51°04' E 001°44'1411.5
2015-May-18 23:21N 50°54' E 001°30'325 8.2
2015-May-17 07:33N 48°21' W 005°53'  

Dump ship's entire track history